sensor_id;sensor_type;location;lat;lon;timestamp;pressure;altitude;pressure_sealevel;temperature;humidity
9249;BME280;4660;41.768;26.198;2023-03-23T00:01:37;100877.72;;;10.78;100.00
9249;BME280;4660;41.768;26.198;2023-03-23T00:04:04;100895.59;;;10.98;100.00
9249;BME280;4660;41.768;26.198;2023-03-23T00:06:33;100896.59;;;10.97;100.00
9249;BME280;4660;41.768;26.198;2023-03-23T00:09:02;100895.31;;;10.92;100.00
9249;BME280;4660;41.768;26.198;2023-03-23T00:11:31;100907.75;;;10.93;100.00
9249;BME280;4660;41.768;26.198;2023-03-23T00:14:00;100901.69;;;10.91;100.00
9249;BME280;4660;41.768;26.198;2023-03-23T00:16:32;100894.59;;;10.80;100.00
9249;BME280;4660;41.768;26.198;2023-03-23T00:19:05;100898.28;;;10.89;100.00
9249;BME280;4660;41.768;26.198;2023-03-23T00:21:38;100887.91;;;10.74;100.00
9249;BME280;4660;41.768;26.198;2023-03-23T00:26:36;100897.00;;;10.93;100.00
9249;BME280;4660;41.768;26.198;2023-03-23T00:29:16;100763.09;;;9.97;100.00
9249;BME280;4660;41.768;26.198;2023-03-23T00:31:45;100900.81;;;10.90;100.00
9249;BME280;4660;41.768;26.198;2023-03-23T00:34:20;100877.59;;;10.89;100.00
9249;BME280;4660;41.768;26.198;2023-03-23T00:36:50;100896.44;;;10.89;100.00
9249;BME280;4660;41.768;26.198;2023-03-23T00:39:17;100863.78;;;10.54;100.00
9249;BME280;4660;41.768;26.198;2023-03-23T00:41:46;100888.91;;;10.73;100.00
9249;BME280;4660;41.768;26.198;2023-03-23T00:44:16;100895.44;;;10.40;100.00
9249;BME280;4660;41.768;26.198;2023-03-23T00:46:47;100886.13;;;10.44;100.00
9249;BME280;4660;41.768;26.198;2023-03-23T00:49:26;100886.16;;;10.54;100.00
9249;BME280;4660;41.768;26.198;2023-03-23T00:51:57;100888.06;;;10.73;100.00
9249;BME280;4660;41.768;26.198;2023-03-23T00:54:25;100878.38;;;10.51;100.00
9249;BME280;4660;41.768;26.198;2023-03-23T00:56:54;100886.44;;;10.51;100.00
9249;BME280;4660;41.768;26.198;2023-03-23T00:59:21;100880.38;;;10.28;100.00
9249;BME280;4660;41.768;26.198;2023-03-23T01:01:52;100882.69;;;10.33;100.00
9249;BME280;4660;41.768;26.198;2023-03-23T01:04:19;100878.00;;;10.04;100.00
9249;BME280;4660;41.768;26.198;2023-03-23T01:06:49;100878.31;;;10.11;100.00
9249;BME280;4660;41.768;26.198;2023-03-23T01:09:18;100876.63;;;10.10;100.00
9249;BME280;4660;41.768;26.198;2023-03-23T01:11:51;100854.16;;;10.20;100.00
9249;BME280;4660;41.768;26.198;2023-03-23T01:14:20;100873.09;;;10.50;100.00
9249;BME280;4660;41.768;26.198;2023-03-23T01:16:47;100880.06;;;10.52;100.00
9249;BME280;4660;41.768;26.198;2023-03-23T01:19:14;100879.81;;;10.25;100.00
9249;BME280;4660;41.768;26.198;2023-03-23T01:21:43;100862.78;;;10.14;100.00
9249;BME280;4660;41.768;26.198;2023-03-23T01:24:08;100880.00;;;10.12;100.00
9249;BME280;4660;41.768;26.198;2023-03-23T01:26:35;100878.13;;;10.03;100.00
9249;BME280;4660;41.768;26.198;2023-03-23T01:29:02;100876.78;;;10.18;100.00
9249;BME280;4660;41.768;26.198;2023-03-23T01:31:28;100878.47;;;10.40;100.00
9249;BME280;4660;41.768;26.198;2023-03-23T01:33:54;100867.00;;;10.38;100.00
9249;BME280;4660;41.768;26.198;2023-03-23T01:36:25;100872.94;;;10.41;100.00
9249;BME280;4660;41.768;26.198;2023-03-23T01:39:00;100870.88;;;10.64;100.00
9249;BME280;4660;41.768;26.198;2023-03-23T01:41:30;100861.34;;;10.41;100.00
9249;BME280;4660;41.768;26.198;2023-03-23T01:45:11;100875.88;;;10.29;100.00
9249;BME280;4660;41.768;26.198;2023-03-23T01:46:57;100875.44;;;10.24;100.00
9249;BME280;4660;41.768;26.198;2023-03-23T01:49:40;100873.59;;;10.24;100.00
9249;BME280;4660;41.768;26.198;2023-03-23T01:52:25;100866.53;;;10.23;100.00
9249;BME280;4660;41.768;26.198;2023-03-23T01:54:54;100878.16;;;10.33;100.00
9249;BME280;4660;41.768;26.198;2023-03-23T01:57:33;100881.00;;;10.41;100.00
9249;BME280;4660;41.768;26.198;2023-03-23T02:00:04;100882.69;;;10.42;100.00
9249;BME280;4660;41.768;26.198;2023-03-23T02:02:55;100881.53;;;10.26;100.00
9249;BME280;4660;41.768;26.198;2023-03-23T02:05:40;100876.75;;;10.08;100.00
9249;BME280;4660;41.768;26.198;2023-03-23T02:08:20;100876.56;;;10.00;100.00
9249;BME280;4660;41.768;26.198;2023-03-23T02:10:47;100881.38;;;10.06;100.00
9249;BME280;4660;41.768;26.198;2023-03-23T02:13:15;100881.13;;;10.09;100.00
9249;BME280;4660;41.768;26.198;2023-03-23T02:34:27;100871.97;;;9.91;100.00
9249;BME280;4660;41.768;26.198;2023-03-23T02:37:19;100883.31;;;9.95;100.00
9249;BME280;4660;41.768;26.198;2023-03-23T02:39:51;100892.88;;;10.29;100.00
9249;BME280;4660;41.768;26.198;2023-03-23T02:42:26;100894.13;;;10.04;100.00
9249;BME280;4660;41.768;26.198;2023-03-23T02:44:54;100896.66;;;10.06;100.00
9249;BME280;4660;41.768;26.198;2023-03-23T02:47:25;100899.69;;;10.12;100.00
9249;BME280;4660;41.768;26.198;2023-03-23T02:49:55;100896.47;;;10.18;100.00
9249;BME280;4660;41.768;26.198;2023-03-23T02:52:36;100891.59;;;10.12;100.00
9249;BME280;4660;41.768;26.198;2023-03-23T02:55:04;100907.94;;;10.00;100.00
9249;BME280;4660;41.768;26.198;2023-03-23T02:57:34;100907.94;;;10.00;100.00
9249;BME280;4660;41.768;26.198;2023-03-23T03:00:06;100907.91;;;9.90;100.00
9249;BME280;4660;41.768;26.198;2023-03-23T03:02:40;100904.09;;;9.92;100.00
9249;BME280;4660;41.768;26.198;2023-03-23T03:08:55;100905.69;;;9.95;100.00
9249;BME280;4660;41.768;26.198;2023-03-23T03:11:26;100905.22;;;9.90;100.00
9249;BME280;4660;41.768;26.198;2023-03-23T03:14:19;100902.16;;;9.74;100.00
9249;BME280;4660;41.768;26.198;2023-03-23T03:17:01;100911.31;;;9.71;100.00
9249;BME280;4660;41.768;26.198;2023-03-23T03:19:47;100909.88;;;9.67;100.00
9249;BME280;4660;41.768;26.198;2023-03-23T03:22:17;100911.72;;;9.67;100.00
9249;BME280;4660;41.768;26.198;2023-03-23T03:24:58;100922.47;;;9.67;100.00
9249;BME280;4660;41.768;26.198;2023-03-23T03:27:25;100917.34;;;9.63;100.00
9249;BME280;4660;41.768;26.198;2023-03-23T03:30:06;100923.19;;;9.69;100.00
9249;BME280;4660;41.768;26.198;2023-03-23T03:32:44;100922.31;;;9.89;100.00
9249;BME280;4660;41.768;26.198;2023-03-23T03:35:16;100915.81;;;9.91;100.00
9249;BME280;4660;41.768;26.198;2023-03-23T03:37:43;100924.88;;;9.70;100.00
9249;BME280;4660;41.768;26.198;2023-03-23T03:40:23;100924.31;;;9.87;100.00
9249;BME280;4660;41.768;26.198;2023-03-23T03:42:50;100927.38;;;9.82;100.00
9249;BME280;4660;41.768;26.198;2023-03-23T03:45:19;100925.34;;;9.75;100.00
9249;BME280;4660;41.768;26.198;2023-03-23T03:47:46;100926.06;;;9.77;100.00
9249;BME280;4660;41.768;26.198;2023-03-23T03:50:14;100918.84;;;9.77;100.00
9249;BME280;4660;41.768;26.198;2023-03-23T03:52:47;100923.31;;;9.88;100.00
9249;BME280;4660;41.768;26.198;2023-03-23T03:55:14;100926.66;;;10.01;100.00
9249;BME280;4660;41.768;26.198;2023-03-23T03:57:41;100922.16;;;10.11;100.00
9249;BME280;4660;41.768;26.198;2023-03-23T04:00:11;100927.22;;;10.05;100.00
9249;BME280;4660;41.768;26.198;2023-03-23T04:02:47;100923.50;;;9.96;100.00
9249;BME280;4660;41.768;26.198;2023-03-23T04:05:20;100924.13;;;9.79;100.00
9249;BME280;4660;41.768;26.198;2023-03-23T04:07:49;100930.84;;;9.73;100.00
9249;BME280;4660;41.768;26.198;2023-03-23T04:10:23;100930.59;;;9.76;100.00
9249;BME280;4660;41.768;26.198;2023-03-23T04:12:49;100918.50;;;9.71;100.00
9249;BME280;4660;41.768;26.198;2023-03-23T04:15:16;100900.34;;;9.42;100.00
9249;BME280;4660;41.768;26.198;2023-03-23T04:17:43;100936.28;;;9.62;100.00
9249;BME280;4660;41.768;26.198;2023-03-23T04:20:11;100927.50;;;9.60;100.00
9249;BME280;4660;41.768;26.198;2023-03-23T04:22:45;100948.38;;;9.56;100.00
9249;BME280;4660;41.768;26.198;2023-03-23T04:25:26;100939.81;;;9.62;100.00
9249;BME280;4660;41.768;26.198;2023-03-23T04:27:55;100943.63;;;9.60;100.00
9249;BME280;4660;41.768;26.198;2023-03-23T04:30:24;100930.38;;;9.68;100.00
9249;BME280;4660;41.768;26.198;2023-03-23T04:32:57;100938.31;;;9.70;100.00
9249;BME280;4660;41.768;26.198;2023-03-23T04:35:30;100937.97;;;9.63;100.00
9249;BME280;4660;41.768;26.198;2023-03-23T04:37:57;100942.91;;;9.79;100.00
9249;BME280;4660;41.768;26.198;2023-03-23T04:40:23;100943.38;;;9.84;100.00
9249;BME280;4660;41.768;26.198;2023-03-23T04:42:50;100942.97;;;9.88;100.00
9249;BME280;4660;41.768;26.198;2023-03-23T04:45:21;100959.44;;;9.95;100.00
9249;BME280;4660;41.768;26.198;2023-03-23T04:47:50;100950.91;;;9.90;100.00
9249;BME280;4660;41.768;26.198;2023-03-23T04:50:31;100956.09;;;9.82;100.00
9249;BME280;4660;41.768;26.198;2023-03-23T04:53:03;100958.91;;;10.01;100.00
9249;BME280;4660;41.768;26.198;2023-03-23T04:55:32;100962.16;;;10.05;100.00
9249;BME280;4660;41.768;26.198;2023-03-23T04:58:09;100962.59;;;10.00;100.00
9249;BME280;4660;41.768;26.198;2023-03-23T05:00:43;100968.72;;;9.91;100.00
9249;BME280;4660;41.768;26.198;2023-03-23T05:03:13;100963.97;;;9.95;100.00
9249;BME280;4660;41.768;26.198;2023-03-23T05:05:42;100977.06;;;9.88;100.00
9249;BME280;4660;41.768;26.198;2023-03-23T05:08:09;100970.19;;;9.95;100.00
9249;BME280;4660;41.768;26.198;2023-03-23T05:10:37;100973.06;;;9.82;100.00
9249;BME280;4660;41.768;26.198;2023-03-23T05:13:05;100971.53;;;9.69;100.00
9249;BME280;4660;41.768;26.198;2023-03-23T05:15:31;100979.06;;;9.75;100.00
9249;BME280;4660;41.768;26.198;2023-03-23T05:17:58;100972.19;;;9.61;100.00
9249;BME280;4660;41.768;26.198;2023-03-23T05:20:25;100990.69;;;9.75;100.00
9249;BME280;4660;41.768;26.198;2023-03-23T05:22:52;100993.16;;;9.67;100.00
9249;BME280;4660;41.768;26.198;2023-03-23T05:25:20;100982.34;;;9.57;100.00
9249;BME280;4660;41.768;26.198;2023-03-23T05:27:47;100982.78;;;9.62;100.00
9249;BME280;4660;41.768;26.198;2023-03-23T05:30:19;100992.44;;;9.65;100.00
9249;BME280;4660;41.768;26.198;2023-03-23T05:32:50;100996.63;;;9.58;100.00
9249;BME280;4660;41.768;26.198;2023-03-23T05:35:18;100991.84;;;9.61;100.00
9249;BME280;4660;41.768;26.198;2023-03-23T05:37:48;100993.66;;;9.61;100.00
9249;BME280;4660;41.768;26.198;2023-03-23T05:40:16;100999.13;;;9.71;100.00
9249;BME280;4660;41.768;26.198;2023-03-23T05:42:42;100995.53;;;9.81;100.00
9249;BME280;4660;41.768;26.198;2023-03-23T05:45:12;100999.22;;;9.80;100.00
9249;BME280;4660;41.768;26.198;2023-03-23T05:47:40;100985.25;;;9.65;100.00
9249;BME280;4660;41.768;26.198;2023-03-23T05:50:08;100996.44;;;9.71;100.00
9249;BME280;4660;41.768;26.198;2023-03-23T05:52:38;100995.84;;;9.67;100.00
9249;BME280;4660;41.768;26.198;2023-03-23T05:55:06;100981.81;;;9.63;100.00
9249;BME280;4660;41.768;26.198;2023-03-23T05:57:35;100983.94;;;9.81;100.00
9249;BME280;4660;41.768;26.198;2023-03-23T06:00:03;101004.66;;;9.90;100.00
9249;BME280;4660;41.768;26.198;2023-03-23T06:02:41;101005.91;;;9.86;100.00
9249;BME280;4660;41.768;26.198;2023-03-23T06:05:16;101011.72;;;9.91;100.00
9249;BME280;4660;41.768;26.198;2023-03-23T06:07:43;101009.69;;;9.83;100.00
9249;BME280;4660;41.768;26.198;2023-03-23T06:10:10;101003.47;;;9.83;100.00
9249;BME280;4660;41.768;26.198;2023-03-23T06:12:39;100999.38;;;9.68;100.00
9249;BME280;4660;41.768;26.198;2023-03-23T06:15:07;101007.84;;;9.84;100.00
9249;BME280;4660;41.768;26.198;2023-03-23T06:17:37;101016.13;;;9.92;100.00
9249;BME280;4660;41.768;26.198;2023-03-23T06:20:04;101013.75;;;9.99;100.00
9249;BME280;4660;41.768;26.198;2023-03-23T06:22:39;101009.91;;;10.12;100.00
9249;BME280;4660;41.768;26.198;2023-03-23T06:25:10;101011.88;;;10.10;100.00
9249;BME280;4660;41.768;26.198;2023-03-23T06:27:38;101016.59;;;9.97;100.00
9249;BME280;4660;41.768;26.198;2023-03-23T06:30:08;101019.75;;;10.02;100.00
9249;BME280;4660;41.768;26.198;2023-03-23T06:32:35;100998.75;;;9.96;100.00
9249;BME280;4660;41.768;26.198;2023-03-23T06:35:02;101027.34;;;9.97;100.00
9249;BME280;4660;41.768;26.198;2023-03-23T06:37:30;101012.47;;;9.93;100.00
9249;BME280;4660;41.768;26.198;2023-03-23T06:39:57;101019.66;;;10.13;100.00
9249;BME280;4660;41.768;26.198;2023-03-23T06:42:24;101027.06;;;10.21;100.00
9249;BME280;4660;41.768;26.198;2023-03-23T06:44:51;101021.66;;;10.32;100.00
9249;BME280;4660;41.768;26.198;2023-03-23T06:47:17;101030.72;;;10.31;100.00
9249;BME280;4660;41.768;26.198;2023-03-23T06:49:44;101021.22;;;10.27;100.00
9249;BME280;4660;41.768;26.198;2023-03-23T06:52:11;101014.50;;;10.22;100.00
9249;BME280;4660;41.768;26.198;2023-03-23T06:54:39;101030.66;;;10.22;100.00
9249;BME280;4660;41.768;26.198;2023-03-23T06:57:08;101029.97;;;10.08;100.00
9249;BME280;4660;41.768;26.198;2023-03-23T06:59:34;101045.69;;;10.24;100.00
9249;BME280;4660;41.768;26.198;2023-03-23T07:02:01;101041.22;;;10.34;100.00
9249;BME280;4660;41.768;26.198;2023-03-23T07:04:29;101038.78;;;10.31;100.00
9249;BME280;4660;41.768;26.198;2023-03-23T07:06:55;101025.91;;;10.35;100.00
9249;BME280;4660;41.768;26.198;2023-03-23T07:09:22;101042.72;;;10.48;100.00
9249;BME280;4660;41.768;26.198;2023-03-23T07:11:49;101037.28;;;10.38;100.00
9249;BME280;4660;41.768;26.198;2023-03-23T07:14:19;101047.66;;;10.43;100.00
9249;BME280;4660;41.768;26.198;2023-03-23T07:16:46;101041.84;;;10.47;100.00
9249;BME280;4660;41.768;26.198;2023-03-23T07:19:13;101054.19;;;10.50;100.00
9249;BME280;4660;41.768;26.198;2023-03-23T07:21:41;101041.00;;;10.47;100.00
9249;BME280;4660;41.768;26.198;2023-03-23T07:24:12;101025.41;;;10.41;100.00
9249;BME280;4660;41.768;26.198;2023-03-23T07:26:52;101066.00;;;10.59;100.00
9249;BME280;4660;41.768;26.198;2023-03-23T07:29:19;101033.81;;;10.27;100.00
9249;BME280;4660;41.768;26.198;2023-03-23T07:31:46;101045.75;;;10.34;100.00
9249;BME280;4660;41.768;26.198;2023-03-23T07:34:13;101062.91;;;10.63;100.00
9249;BME280;4660;41.768;26.198;2023-03-23T07:36:42;101059.75;;;10.79;100.00
9249;BME280;4660;41.768;26.198;2023-03-23T07:39:09;101050.13;;;10.56;100.00
9249;BME280;4660;41.768;26.198;2023-03-23T07:41:36;101067.75;;;10.69;100.00
9249;BME280;4660;41.768;26.198;2023-03-23T07:44:04;101064.06;;;10.70;100.00
9249;BME280;4660;41.768;26.198;2023-03-23T07:46:34;101062.31;;;10.81;100.00
9249;BME280;4660;41.768;26.198;2023-03-23T07:49:01;101076.09;;;10.97;100.00
9249;BME280;4660;41.768;26.198;2023-03-23T07:51:32;101066.34;;;10.96;100.00
9249;BME280;4660;41.768;26.198;2023-03-23T07:53:59;101071.66;;;11.17;100.00
9249;BME280;4660;41.768;26.198;2023-03-23T07:56:31;101073.91;;;11.12;100.00
9249;BME280;4660;41.768;26.198;2023-03-23T07:58:59;101091.91;;;11.21;100.00
9249;BME280;4660;41.768;26.198;2023-03-23T08:01:34;101071.19;;;11.02;100.00
9249;BME280;4660;41.768;26.198;2023-03-23T08:04:00;101085.25;;;11.15;100.00
9249;BME280;4660;41.768;26.198;2023-03-23T08:06:32;101096.03;;;11.15;100.00
9249;BME280;4660;41.768;26.198;2023-03-23T08:09:01;101092.59;;;11.13;100.00
9249;BME280;4660;41.768;26.198;2023-03-23T08:11:39;101095.44;;;11.12;100.00
9249;BME280;4660;41.768;26.198;2023-03-23T08:14:05;101098.16;;;11.21;100.00
9249;BME280;4660;41.768;26.198;2023-03-23T08:16:31;101095.97;;;11.06;100.00
9249;BME280;4660;41.768;26.198;2023-03-23T08:18:59;101094.06;;;11.17;100.00
9249;BME280;4660;41.768;26.198;2023-03-23T08:21:28;101107.38;;;11.19;100.00
9249;BME280;4660;41.768;26.198;2023-03-23T08:23:54;101099.75;;;11.24;100.00
9249;BME280;4660;41.768;26.198;2023-03-23T08:26:21;101105.31;;;11.42;100.00
9249;BME280;4660;41.768;26.198;2023-03-23T08:28:48;101114.16;;;11.63;100.00
9249;BME280;4660;41.768;26.198;2023-03-23T08:31:14;101114.41;;;11.81;100.00
9249;BME280;4660;41.768;26.198;2023-03-23T08:33:41;101107.31;;;11.90;100.00
9249;BME280;4660;41.768;26.198;2023-03-23T08:36:11;101106.19;;;12.02;100.00
9249;BME280;4660;41.768;26.198;2023-03-23T08:38:38;101110.00;;;11.90;100.00
9249;BME280;4660;41.768;26.198;2023-03-23T08:41:08;101111.00;;;11.89;100.00
9249;BME280;4660;41.768;26.198;2023-03-23T08:43:44;101111.28;;;11.95;100.00
9249;BME280;4660;41.768;26.198;2023-03-23T08:46:14;101109.59;;;12.23;100.00
9249;BME280;4660;41.768;26.198;2023-03-23T08:48:45;101100.19;;;12.56;100.00
9249;BME280;4660;41.768;26.198;2023-03-23T08:51:12;101095.34;;;12.60;100.00
9249;BME280;4660;41.768;26.198;2023-03-23T08:53:39;101108.34;;;12.84;100.00
9249;BME280;4660;41.768;26.198;2023-03-23T08:56:08;101115.44;;;12.94;100.00
9249;BME280;4660;41.768;26.198;2023-03-23T08:58:36;101114.25;;;13.07;100.00
9249;BME280;4660;41.768;26.198;2023-03-23T09:01:07;101095.00;;;12.82;100.00
9249;BME280;4660;41.768;26.198;2023-03-23T09:03:35;101115.34;;;12.86;100.00
9249;BME280;4660;41.768;26.198;2023-03-23T09:06:05;101107.78;;;12.90;100.00
9249;BME280;4660;41.768;26.198;2023-03-23T09:08:32;101105.22;;;12.88;100.00
9249;BME280;4660;41.768;26.198;2023-03-23T09:10:59;101113.88;;;12.92;100.00
9249;BME280;4660;41.768;26.198;2023-03-23T09:13:26;101115.63;;;12.83;100.00
9249;BME280;4660;41.768;26.198;2023-03-23T09:15:52;101111.56;;;12.60;100.00
9249;BME280;4660;41.768;26.198;2023-03-23T09:18:20;101100.50;;;12.34;100.00
9249;BME280;4660;41.768;26.198;2023-03-23T09:20:58;101107.31;;;12.48;100.00
9249;BME280;4660;41.768;26.198;2023-03-23T09:23:26;101097.38;;;12.38;100.00
9249;BME280;4660;41.768;26.198;2023-03-23T09:25:55;101110.00;;;12.28;100.00
9249;BME280;4660;41.768;26.198;2023-03-23T09:28:22;101100.94;;;12.39;100.00
9249;BME280;4660;41.768;26.198;2023-03-23T09:30:49;101115.50;;;12.75;100.00
9249;BME280;4660;41.768;26.198;2023-03-23T09:33:19;101115.03;;;12.89;100.00
9249;BME280;4660;41.768;26.198;2023-03-23T09:35:47;101106.53;;;12.75;100.00
9249;BME280;4660;41.768;26.198;2023-03-23T09:38:15;101102.69;;;12.87;100.00
9249;BME280;4660;41.768;26.198;2023-03-23T09:41:01;101107.56;;;13.11;100.00
9249;BME280;4660;41.768;26.198;2023-03-23T09:49:50;101094.06;;;13.11;100.00
9249;BME280;4660;41.768;26.198;2023-03-23T09:52:22;101101.53;;;13.36;100.00
9249;BME280;4660;41.768;26.198;2023-03-23T09:54:53;101111.34;;;13.37;100.00
9249;BME280;4660;41.768;26.198;2023-03-23T09:57:43;101113.13;;;13.46;100.00
9249;BME280;4660;41.768;26.198;2023-03-23T10:00:26;101109.38;;;13.30;100.00
9249;BME280;4660;41.768;26.198;2023-03-23T10:03:20;101111.22;;;13.29;100.00
9249;BME280;4660;41.768;26.198;2023-03-23T10:05:53;101100.94;;;12.95;100.00
9249;BME280;4660;41.768;26.198;2023-03-23T10:08:31;101096.34;;;13.06;100.00
9249;BME280;4660;41.768;26.198;2023-03-23T10:11:12;101104.34;;;13.35;100.00
9249;BME280;4660;41.768;26.198;2023-03-23T10:17:03;101099.34;;;13.67;100.00
9249;BME280;4660;41.768;26.198;2023-03-23T10:22:37;101095.13;;;13.37;100.00
9249;BME280;4660;41.768;26.198;2023-03-23T10:25:22;101089.22;;;13.52;100.00
9249;BME280;4660;41.768;26.198;2023-03-23T10:28:12;101097.50;;;13.68;100.00
9249;BME280;4660;41.768;26.198;2023-03-23T10:30:42;101086.88;;;14.02;100.00
9249;BME280;4660;41.768;26.198;2023-03-23T10:33:16;101091.00;;;14.32;100.00
9249;BME280;4660;41.768;26.198;2023-03-23T10:36:02;101094.09;;;14.37;100.00
9249;BME280;4660;41.768;26.198;2023-03-23T10:38:49;101086.00;;;14.37;100.00
9249;BME280;4660;41.768;26.198;2023-03-23T10:41:26;101097.50;;;14.57;100.00
9249;BME280;4660;41.768;26.198;2023-03-23T10:43:58;101088.00;;;14.53;100.00
9249;BME280;4660;41.768;26.198;2023-03-23T10:46:56;101081.09;;;14.58;100.00
9249;BME280;4660;41.768;26.198;2023-03-23T10:49:47;101087.44;;;14.49;100.00
9249;BME280;4660;41.768;26.198;2023-03-23T10:52:36;101080.03;;;14.77;100.00
9249;BME280;4660;41.768;26.198;2023-03-23T10:55:18;101082.59;;;14.79;100.00
9249;BME280;4660;41.768;26.198;2023-03-23T10:57:46;101081.41;;;14.81;100.00
9249;BME280;4660;41.768;26.198;2023-03-23T11:00:25;101073.41;;;14.72;100.00
9249;BME280;4660;41.768;26.198;2023-03-23T11:05:52;101093.44;;;14.17;100.00
9249;BME280;4660;41.768;26.198;2023-03-23T11:08:37;101082.59;;;13.82;100.00
9249;BME280;4660;41.768;26.198;2023-03-23T11:11:31;101056.78;;;13.69;100.00
9249;BME280;4660;41.768;26.198;2023-03-23T11:16:57;101075.56;;;13.89;100.00
9249;BME280;4660;41.768;26.198;2023-03-23T11:19:38;101054.38;;;13.84;100.00
9249;BME280;4660;41.768;26.198;2023-03-23T11:22:14;101082.75;;;13.80;100.00
9249;BME280;4660;41.768;26.198;2023-03-23T11:24:45;101078.41;;;13.69;100.00
9249;BME280;4660;41.768;26.198;2023-03-23T11:27:14;101066.09;;;13.57;100.00
9249;BME280;4660;41.768;26.198;2023-03-23T11:30:00;101073.19;;;13.40;100.00
9249;BME280;4660;41.768;26.198;2023-03-23T11:32:29;101081.22;;;13.50;100.00
9249;BME280;4660;41.768;26.198;2023-03-23T11:35:17;101085.22;;;13.73;100.00
9249;BME280;4660;41.768;26.198;2023-03-23T11:37:57;101079.97;;;13.72;100.00
9249;BME280;4660;41.768;26.198;2023-03-23T11:40:31;101079.56;;;13.85;100.00
9249;BME280;4660;41.768;26.198;2023-03-23T11:43:13;101056.03;;;13.49;100.00
9249;BME280;4660;41.768;26.198;2023-03-23T11:46:09;101060.94;;;13.64;100.00
9249;BME280;4660;41.768;26.198;2023-03-23T11:48:56;101056.84;;;13.60;100.00
9249;BME280;4660;41.768;26.198;2023-03-23T11:51:30;101060.56;;;13.59;100.00
9249;BME280;4660;41.768;26.198;2023-03-23T11:54:37;101060.09;;;13.99;100.00
9249;BME280;4660;41.768;26.198;2023-03-23T11:57:13;101019.69;;;13.97;100.00
9249;BME280;4660;41.768;26.198;2023-03-23T11:59:41;101047.34;;;14.09;100.00
9249;BME280;4660;41.768;26.198;2023-03-23T12:05:33;101052.84;;;14.17;100.00
9249;BME280;4660;41.768;26.198;2023-03-23T12:08:40;101051.72;;;14.28;100.00
9249;BME280;4660;41.768;26.198;2023-03-23T12:20:37;101042.22;;;14.68;100.00
9249;BME280;4660;41.768;26.198;2023-03-23T12:23:43;101044.00;;;14.85;100.00
9249;BME280;4660;41.768;26.198;2023-03-23T12:26:35;101030.81;;;14.82;100.00
9249;BME280;4660;41.768;26.198;2023-03-23T12:35:39;101041.81;;;15.14;100.00
9249;BME280;4660;41.768;26.198;2023-03-23T12:38:32;101046.63;;;14.95;100.00
9249;BME280;4660;41.768;26.198;2023-03-23T12:44:46;101037.66;;;14.94;100.00
9249;BME280;4660;41.768;26.198;2023-03-23T12:47:44;101026.69;;;14.78;100.00
9249;BME280;4660;41.768;26.198;2023-03-23T12:51:08;101034.16;;;14.76;100.00
9249;BME280;4660;41.768;26.198;2023-03-23T12:53:30;100994.97;;;14.36;100.00
9249;BME280;4660;41.768;26.198;2023-03-23T12:56:34;101025.09;;;14.59;100.00
9249;BME280;4660;41.768;26.198;2023-03-23T12:59:28;101027.31;;;14.64;100.00
9249;BME280;4660;41.768;26.198;2023-03-23T13:04:44;101020.63;;;14.50;100.00
9249;BME280;4660;41.768;26.198;2023-03-23T13:07:17;101017.38;;;14.46;100.00
9249;BME280;4660;41.768;26.198;2023-03-23T13:09:51;101003.34;;;14.25;100.00
9249;BME280;4660;41.768;26.198;2023-03-23T13:12:20;101007.78;;;14.34;100.00
9249;BME280;4660;41.768;26.198;2023-03-23T13:17:54;101018.25;;;14.29;100.00
9249;BME280;4660;41.768;26.198;2023-03-23T13:21:05;101027.00;;;14.23;100.00
9249;BME280;4660;41.768;26.198;2023-03-23T13:23:58;101009.47;;;14.35;100.00
9249;BME280;4660;41.768;26.198;2023-03-23T13:26:26;101018.81;;;14.58;100.00
9249;BME280;4660;41.768;26.198;2023-03-23T13:29:08;101019.94;;;14.48;100.00
9249;BME280;4660;41.768;26.198;2023-03-23T13:31:45;101006.84;;;14.43;100.00
9249;BME280;4660;41.768;26.198;2023-03-23T13:34:39;101002.75;;;14.39;100.00
9249;BME280;4660;41.768;26.198;2023-03-23T13:37:28;101004.72;;;14.29;100.00
9249;BME280;4660;41.768;26.198;2023-03-23T13:40:20;100986.28;;;14.07;100.00
9249;BME280;4660;41.768;26.198;2023-03-23T13:42:52;101010.16;;;14.29;100.00
9249;BME280;4660;41.768;26.198;2023-03-23T13:48:28;101015.63;;;14.37;100.00
9249;BME280;4660;41.768;26.198;2023-03-23T13:51:01;100969.16;;;14.24;100.00
9249;BME280;4660;41.768;26.198;2023-03-23T13:53:50;101017.47;;;14.63;100.00
9249;BME280;4660;41.768;26.198;2023-03-23T13:59:30;101012.84;;;14.81;100.00
9249;BME280;4660;41.768;26.198;2023-03-23T14:08:11;100982.00;;;14.74;100.00
9249;BME280;4660;41.768;26.198;2023-03-23T14:13:51;100998.72;;;15.03;100.00
9249;BME280;4660;41.768;26.198;2023-03-23T14:16:31;100998.38;;;15.06;100.00
9249;BME280;4660;41.768;26.198;2023-03-23T14:19:28;101003.03;;;15.22;100.00
9249;BME280;4660;41.768;26.198;2023-03-23T14:22:02;101008.53;;;14.96;100.00
9249;BME280;4660;41.768;26.198;2023-03-23T14:24:29;101008.31;;;14.55;100.00
9249;BME280;4660;41.768;26.198;2023-03-23T14:27:16;101009.47;;;14.53;100.00
9249;BME280;4660;41.768;26.198;2023-03-23T14:29:44;101016.16;;;14.67;100.00
9249;BME280;4660;41.768;26.198;2023-03-23T14:32:20;101016.09;;;14.93;100.00
9249;BME280;4660;41.768;26.198;2023-03-23T14:34:57;101005.97;;;14.95;100.00
9249;BME280;4660;41.768;26.198;2023-03-23T14:37:25;101027.81;;;14.93;100.00
9249;BME280;4660;41.768;26.198;2023-03-23T14:39:56;101019.59;;;14.77;100.00
9249;BME280;4660;41.768;26.198;2023-03-23T14:42:38;101030.97;;;14.54;100.00
9249;BME280;4660;41.768;26.198;2023-03-23T14:45:15;101026.19;;;14.48;100.00
9249;BME280;4660;41.768;26.198;2023-03-23T14:47:48;101028.06;;;14.48;100.00
9249;BME280;4660;41.768;26.198;2023-03-23T14:50:42;101022.34;;;14.33;100.00
9249;BME280;4660;41.768;26.198;2023-03-23T14:53:48;101036.09;;;14.57;100.00